Time;durP1;ratioP1;P1;durP2;ratioP2;P2;SDS_P1;SDS_P2;PMS_P1;PMS_P2;Temp;Humidity;BMP_temperature;BMP_pressure;BME280_temperature;BME280_humidity;BME280_pressure;Samples;Min_cycle;Max_cycle;Signal;HPM_P1;HPM_P2
2021/04/09 00:01:07;;;;;;;1.63;1.53;;;;;;;2.16;63.86;100662.72;4993313;28;20185;-73
2021/04/09 00:03:33;;;;;;;1.60;1.50;;;;;;;2.23;63.46;100660.66;4993152;28;20181;-73
2021/04/09 00:05:58;;;;;;;1.47;1.37;;;;;;;2.11;63.80;100657.28;4993202;28;20173;-74
2021/04/09 00:08:23;;;;;;;1.80;1.70;;;;;;;2.19;63.78;100654.16;4993271;28;20212;-73
2021/04/09 00:10:49;;;;;;;0.90;0.90;;;;;;;2.21;63.61;100653.91;4993183;28;20169;-73
2021/04/09 00:13:14;;;;;;;4.77;1.50;;;;;;;2.17;63.93;100653.59;4993253;28;20687;-74
2021/04/09 00:15:39;;;;;;;1.30;1.20;;;;;;;2.05;63.77;100640.25;4993113;28;20213;-74
2021/04/09 00:18:05;;;;;;;3.57;1.50;;;;;;;1.92;64.68;100645.19;4993035;28;20204;-73
2021/04/09 00:20:30;;;;;;;1.80;1.70;;;;;;;1.88;64.64;100642.19;4992905;28;20178;-73
2021/04/09 00:22:56;;;;;;;1.53;1.43;;;;;;;1.64;66.06;100629.97;4992579;28;20181;-73
2021/04/09 00:25:22;;;;;;;2.80;1.90;;;;;;;1.53;66.55;100630.88;4993033;28;20320;-74
2021/04/09 00:27:47;;;;;;;2.80;2.00;;;;;;;1.61;66.76;100625.09;4992895;28;20595;-74
2021/04/09 00:30:24;;;;;;;2.50;1.53;;;;;;;1.43;67.31;100620.78;4992928;28;20177;-73
2021/04/09 00:32:50;;;;;;;1.87;1.77;;;;;;;1.51;67.11;100622.25;4992659;28;20226;-74
2021/04/09 00:35:15;;;;;;;1.80;1.70;;;;;;;1.56;66.71;100619.63;4993019;28;20279;-73
2021/04/09 00:37:41;;;;;;;1.60;1.50;;;;;;;1.63;66.67;100620.28;5007705;28;20216;-73
2021/04/09 00:40:07;;;;;;;1.10;1.00;;;;;;;1.75;65.41;100619.09;4992541;28;20204;-73
2021/04/09 00:42:33;;;;;;;1.70;1.50;;;;;;;1.86;64.72;100611.97;4992429;28;20180;-75
2021/04/09 00:44:59;;;;;;;4.43;1.13;;;;;;;1.93;64.76;100603.72;4992723;28;20417;-73
2021/04/09 00:47:25;;;;;;;8.47;1.77;;;;;;;2.06;64.12;100608.72;4992457;28;20188;-73
2021/04/09 00:49:50;;;;;;;1.73;1.10;;;;;;;2.16;63.98;100592.66;4992504;28;20629;-75
2021/04/09 00:52:16;;;;;;;1.97;1.87;;;;;;;2.19;63.79;100594.88;4992555;28;20654;-73
2021/04/09 00:54:42;;;;;;;0.87;0.87;;;;;;;2.26;63.81;100595.47;4992386;28;20633;-73
2021/04/09 00:57:08;;;;;;;2.00;1.57;;;;;;;2.33;62.95;100590.72;4992340;28;20611;-75
2021/04/09 00:59:34;;;;;;;1.53;1.43;;;;;;;2.35;63.03;100590.47;4992264;28;20185;-73
2021/04/09 01:02:00;;;;;;;0.60;0.60;;;;;;;2.36;63.15;100587.50;4992191;28;20629;-73
2021/04/09 01:04:25;;;;;;;5.70;2.07;;;;;;;2.34;63.04;100583.44;4992329;28;20424;-73
2021/04/09 01:06:51;;;;;;;1.33;1.23;;;;;;;2.37;63.25;100581.03;4992134;28;20185;-73
2021/04/09 01:09:16;;;;;;;0.97;0.97;;;;;;;2.36;63.26;100571.34;4992207;28;20216;-73
2021/04/09 01:11:41;;;;;;;1.03;0.83;;;;;;;2.36;62.89;100576.72;4991955;28;20577;-73
2021/04/09 01:14:09;;;;;;;1.57;1.47;;;;;;;2.37;62.79;100569.44;4992326;28;20259;-73
2021/04/09 01:17:13;;;;;;;1.00;1.00;;;;;;;2.41;62.80;100565.16;4992196;28;20211;-73
2021/04/09 01:19:57;;;;;;;0.67;0.67;;;;;;;2.34;63.29;100557.28;4991983;28;20676;-73
2021/04/09 01:22:25;;;;;;;7.70;1.17;;;;;;;2.39;62.88;100556.53;4991826;28;20420;-75
2021/04/09 01:25:17;;;;;;;2.27;2.07;;;;;;;2.41;63.29;100553.56;4991707;28;20532;-73
2021/04/09 01:28:00;;;;;;;1.03;1.03;;;;;;;2.46;62.67;100545.53;4991863;28;20174;-73
2021/04/09 01:30:54;;;;;;;1.07;1.07;;;;;;;2.58;61.86;100541.59;4991807;28;20428;-73
2021/04/09 01:33:35;;;;;;;1.27;1.17;;;;;;;2.66;61.62;100540.34;4991748;28;20419;-73
2021/04/09 01:36:09;;;;;;;0.77;0.77;;;;;;;2.77;61.06;100541.25;4991367;28;20181;-73
2021/04/09 01:38:40;;;;;;;0.50;0.50;;;;;;;2.87;60.53;100527.81;4991788;28;20425;-73
2021/04/09 01:41:08;;;;;;;0.10;0.10;;;;;;;2.90;60.81;100525.44;4991505;28;20434;-74
2021/04/09 01:43:35;;;;;;;2.60;2.40;;;;;;;2.95;60.50;100517.38;4991531;28;20424;-73
2021/04/09 01:46:01;;;;;;;0.93;0.93;;;;;;;2.96;60.70;100526.28;4991448;28;20942;-73
2021/04/09 01:48:28;;;;;;;1.07;1.07;;;;;;;3.00;60.64;100521.97;4991486;28;20448;-73
2021/04/09 01:50:54;;;;;;;2.10;1.60;;;;;;;2.91;60.76;100518.97;4991494;28;20208;-73
2021/04/09 01:53:24;;;;;;;1.40;1.30;;;;;;;2.91;61.12;100505.47;4991032;28;20937;-72
2021/04/09 01:55:53;;;;;;;3.00;2.27;;;;;;;2.84;61.29;100512.97;4991489;28;20188;-73
2021/04/09 01:58:20;;;;;;;11.17;2.50;;;;;;;2.89;61.40;100501.38;4991439;28;20644;-73
2021/04/09 02:00:46;;;;;;;2.17;1.70;;;;;;;2.84;61.32;100496.78;4991333;28;20180;-74
2021/04/09 02:03:13;;;;;;;1.90;1.30;;;;;;;2.86;61.89;100497.31;4991378;28;20181;-73
2021/04/09 02:05:39;;;;;;;0.43;0.43;;;;;;;2.87;61.87;100485.44;4991404;28;20185;-73
2021/04/09 02:08:10;;;;;;;7.93;1.53;;;;;;;2.90;61.46;100486.84;4991319;28;20177;-75
2021/04/09 02:10:36;;;;;;;2.53;2.17;;;;;;;2.84;61.62;100480.59;4991307;28;20645;-73
2021/04/09 02:13:02;;;;;;;2.13;1.67;;;;;;;2.77;62.73;100484.59;4991214;28;20178;-73
2021/04/09 02:15:27;;;;;;;1.40;1.30;;;;;;;2.67;62.90;100485.31;4991325;28;20224;-73
2021/04/09 02:17:53;;;;;;;5.70;2.73;;;;;;;2.59;62.97;100477.69;4991307;28;20212;-73
2021/04/09 02:20:21;;;;;;;2.20;1.53;;;;;;;2.66;63.37;100472.91;4991150;28;20641;-73
2021/04/09 02:22:49;;;;;;;1.37;1.27;;;;;;;2.75;63.36;100474.06;4991078;28;20554;-73
2021/04/09 02:25:16;;;;;;;2.13;1.93;;;;;;;2.63;63.58;100470.72;4991308;28;20629;-74
2021/04/09 02:27:45;;;;;;;1.27;1.17;;;;;;;2.69;63.80;100461.59;4991183;28;20197;-73
2021/04/09 02:30:13;;;;;;;1.80;1.47;;;;;;;2.59;64.33;100458.81;4991202;28;20203;-73
2021/04/09 02:32:39;;;;;;;1.57;1.47;;;;;;;2.53;64.19;100467.94;4990903;28;20696;-74
2021/04/09 02:35:06;;;;;;;3.00;1.90;;;;;;;2.44;65.07;100456.81;4990995;28;20265;-73
2021/04/09 02:37:32;;;;;;;2.57;1.73;;;;;;;2.49;65.52;100456.06;4990978;28;20308;-73
2021/04/09 02:40:02;;;;;;;1.60;1.50;;;;;;;2.38;65.66;100438.97;4991152;28;20565;-74
2021/04/09 02:42:27;;;;;;;1.90;1.70;;;;;;;2.44;66.23;100448.72;4989601;28;20184;-73
2021/04/09 02:44:54;;;;;;;2.13;1.70;;;;;;;2.53;66.11;100443.69;4991041;28;20221;-73
2021/04/09 02:47:21;;;;;;;2.17;1.37;;;;;;;2.47;66.30;100436.63;4992154;28;20185;-73
2021/04/09 02:49:58;;;;;;;2.27;2.17;;;;;;;2.37;66.12;100435.47;4994841;28;20621;-74
2021/04/09 02:52:27;;;;;;;2.63;2.03;;;;;;;2.53;65.49;100432.88;4994914;28;20605;-73
2021/04/09 02:54:56;;;;;;;3.33;2.07;;;;;;;2.57;64.51;100429.41;4994689;28;20185;-73
2021/04/09 02:57:23;;;;;;;1.53;1.43;;;;;;;2.70;63.89;100428.16;4994498;28;20586;-73
2021/04/09 02:59:54;;;;;;;1.87;1.77;;;;;;;2.76;63.33;100423.63;4994811;28;20255;-73
2021/04/09 03:02:21;;;;;;;1.37;1.37;;;;;;;2.88;63.55;100424.22;4994365;28;20264;-73
2021/04/09 03:04:47;;;;;;;1.87;1.27;;;;;;;2.89;63.07;100425.84;4994472;28;20189;-73
2021/04/09 03:07:15;;;;;;;1.53;1.13;;;;;;;2.95;62.48;100422.91;4994402;28;20748;-73
2021/04/09 03:09:40;;;;;;;4.57;2.50;;;;;;;2.98;62.51;100417.00;4994343;28;20511;-73
2021/04/09 03:12:16;;;;;;;2.43;2.03;;;;;;;2.99;62.38;100415.91;4992678;28;20189;-73
2021/04/09 03:14:43;;;;;;;3.20;2.07;;;;;;;3.04;62.53;100411.63;4992765;28;20615;-73
2021/04/09 03:17:19;;;;;;;4.73;2.10;;;;;;;3.03;62.91;100397.31;4994418;28;20600;-73
2021/04/09 03:19:44;;;;;;;4.70;1.07;;;;;;;3.02;61.71;100397.56;4994493;28;20165;-73
2021/04/09 03:22:11;;;;;;;1.10;1.00;;;;;;;2.98;62.11;100394.59;4994079;28;20232;-73
2021/04/09 03:24:37;;;;;;;2.83;2.57;;;;;;;2.97;62.12;100393.78;4994040;28;20180;-73
2021/04/09 03:27:04;;;;;;;0.90;0.90;;;;;;;2.92;63.26;100393.78;4994051;28;20280;-73
2021/04/09 03:29:30;;;;;;;11.43;2.30;;;;;;;2.91;62.89;100388.63;4994082;28;20235;-73
2021/04/09 03:31:55;;;;;;;1.63;1.47;;;;;;;2.95;62.17;100387.03;4993738;28;20564;-73
2021/04/09 03:34:21;;;;;;;0.63;0.63;;;;;;;2.95;62.06;100384.34;4993884;28;20181;-73
2021/04/09 03:36:46;;;;;;;1.07;0.87;;;;;;;2.95;62.33;100379.75;4993930;28;20216;-73
2021/04/09 03:39:11;;;;;;;1.70;1.60;;;;;;;3.03;62.41;100380.31;4993687;28;20216;-73
2021/04/09 03:41:37;;;;;;;2.03;1.73;;;;;;;3.03;62.18;100377.59;4994059;28;20181;-75
2021/04/09 03:44:02;;;;;;;1.83;1.27;;;;;;;3.03;61.90;100377.59;4993614;28;20308;-73
2021/04/09 03:46:27;;;;;;;5.40;0.80;;;;;;;3.07;61.75;100367.94;4993704;28;20204;-73
2021/04/09 03:48:53;;;;;;;0.10;0.10;;;;;;;3.10;61.77;100364.69;4993618;28;20633;-74
2021/04/09 03:51:18;;;;;;;1.50;1.40;;;;;;;3.08;61.87;100362.25;4993407;28;20213;-75
2021/04/09 03:53:43;;;;;;;1.50;1.40;;;;;;;3.12;62.07;100357.16;4992800;28;20267;-75
2021/04/09 03:56:09;;;;;;;2.17;2.07;;;;;;;3.14;61.46;100365.78;4993160;28;20182;-75
2021/04/09 03:58:34;;;;;;;4.87;0.80;;;;;;;3.16;61.70;100358.22;4992749;28;20212;-75
2021/04/09 04:00:59;;;;;;;1.70;1.40;;;;;;;3.22;61.41;100352.59;4994034;28;20217;-75
2021/04/09 04:03:25;;;;;;;0.50;0.50;;;;;;;3.22;61.33;100354.50;4994548;28;20174;-75
2021/04/09 04:05:50;;;;;;;2.37;0.70;;;;;;;3.24;61.77;100353.16;4993413;28;20174;-75
2021/04/09 04:08:15;;;;;;;0.50;0.50;;;;;;;3.29;61.56;100357.75;4993706;28;20181;-75
2021/04/09 04:10:41;;;;;;;1.40;0.83;;;;;;;3.33;61.41;100355.31;4993186;28;20200;-76
2021/04/09 04:13:06;;;;;;;0.70;0.70;;;;;;;3.37;61.17;100349.13;4993106;28;20169;-73
2021/04/09 04:15:31;;;;;;;2.30;2.20;;;;;;;3.31;61.86;100333.97;4993257;28;20188;-73
2021/04/09 04:17:57;;;;;;;1.37;1.20;;;;;;;3.33;61.44;100342.66;4992990;28;20299;-73
2021/04/09 04:20:22;;;;;;;0.70;0.70;;;;;;;3.30;61.42;100337.75;4992917;28;20205;-73
2021/04/09 04:22:48;;;;;;;0.23;0.23;;;;;;;3.25;61.99;100335.88;4992811;28;20199;-73
2021/04/09 04:25:13;;;;;;;1.20;1.20;;;;;;;3.17;62.12;100333.66;4992959;28;20177;-73
2021/04/09 04:27:39;;;;;;;0.43;0.43;;;;;;;3.22;61.40;100341.81;4992902;28;20608;-73
2021/04/09 04:30:05;;;;;;;0.47;0.47;;;;;;;3.22;62.17;100336.41;4992839;28;20296;-75
2021/04/09 04:32:30;;;;;;;1.37;1.30;;;;;;;3.19;62.25;100320.75;4991440;28;20265;-72
2021/04/09 04:34:56;;;;;;;0.07;0.07;;;;;;;3.15;62.28;100326.91;4992642;28;20183;-75
2021/04/09 04:37:22;;;;;;;0.47;0.47;;;;;;;3.17;62.60;100319.38;4992658;28;20295;-75
2021/04/09 04:39:47;;;;;;;1.53;1.47;;;;;;;3.19;62.15;100311.84;4992701;28;20500;-75
2021/04/09 04:42:12;;;;;;;1.03;1.03;;;;;;;3.28;61.95;100319.13;4992510;28;20187;-75
2021/04/09 04:44:38;;;;;;;0.50;0.50;;;;;;;3.31;62.20;100322.38;4992601;28;20533;-76
2021/04/09 04:47:03;;;;;;;0.27;0.27;;;;;;;3.31;62.25;100309.69;4992788;28;20650;-75
2021/04/09 04:49:29;;;;;;;1.20;0.93;;;;;;;3.31;62.29;100315.09;4992295;28;20232;-75
2021/04/09 04:51:54;;;;;;;0.57;0.57;;;;;;;3.34;61.98;100308.38;4992276;28;20275;-75
2021/04/09 04:54:19;;;;;;;1.17;1.03;;;;;;;3.35;62.64;100324.28;4992219;28;20180;-75
2021/04/09 04:56:44;;;;;;;0.47;0.47;;;;;;;3.37;62.41;100321.31;4992258;28;20208;-75
2021/04/09 04:59:10;;;;;;;0.97;0.63;;;;;;;3.43;61.83;100317.53;4992273;28;20184;-74
2021/04/09 05:01:35;;;;;;;0.20;0.20;;;;;;;3.37;62.41;100311.34;4992079;28;20640;-75
2021/04/09 05:04:01;;;;;;;0.40;0.40;;;;;;;3.35;62.69;100313.50;4992249;28;20169;-75
2021/04/09 05:06:26;;;;;;;3.20;2.00;;;;;;;3.37;62.11;100326.72;4992281;28;20180;-75
2021/04/09 05:08:51;;;;;;;0.50;0.33;;;;;;;3.46;62.29;100319.72;4992042;28;20640;-74
2021/04/09 05:11:17;;;;;;;0.73;0.73;;;;;;;3.47;62.69;100315.94;4991396;28;20249;-75
2021/04/09 05:13:44;;;;;;;0.73;0.73;;;;;;;3.46;62.91;100317.00;4992183;28;20173;-75
2021/04/09 05:16:09;;;;;;;2.67;1.87;;;;;;;3.53;62.20;100312.19;4990794;28;20239;-75
2021/04/09 05:18:34;;;;;;;1.37;1.30;;;;;;;3.56;61.98;100307.03;4991958;28;20177;-75
2021/04/09 05:21:00;;;;;;;0.33;0.33;;;;;;;3.56;62.86;100309.75;4991886;28;20542;-75
2021/04/09 05:23:25;;;;;;;2.50;1.17;;;;;;;3.62;62.18;100318.69;4991789;28;20252;-75
2021/04/09 05:25:50;;;;;;;1.23;0.57;;;;;;;3.67;62.21;100310.56;4991727;28;20530;-74
2021/04/09 05:28:16;;;;;;;1.00;1.00;;;;;;;3.75;61.08;100314.63;4991821;28;20223;-83
2021/04/09 05:30:41;;;;;;;0.70;0.70;;;;;;;3.80;61.49;100306.53;4991739;28;20684;-75
2021/04/09 05:33:08;;;;;;;0.87;0.87;;;;;;;3.86;60.58;100313.53;4991470;28;20641;-76
2021/04/09 05:35:33;;;;;;;0.77;0.77;;;;;;;3.84;61.90;100311.13;4991730;28;20272;-75
2021/04/09 05:37:58;;;;;;;1.80;1.23;;;;;;;3.87;62.17;100305.16;4991696;28;20284;-75
2021/04/09 05:40:24;;;;;;;1.83;1.70;;;;;;;3.89;61.20;100307.59;4991513;28;20199;-75
2021/04/09 05:43:01;;;;;;;0.67;0.67;;;;;;;3.98;61.11;100311.38;4991575;28;20260;-76
2021/04/09 05:45:27;;;;;;;0.73;0.53;;;;;;;4.01;60.82;100310.84;4991430;28;20780;-75
2021/04/09 05:47:54;;;;;;;1.73;1.63;;;;;;;4.06;61.43;100308.16;4991397;28;20213;-75
2021/04/09 05:50:19;;;;;;;1.77;1.43;;;;;;;4.08;61.32;100308.69;4991537;28;20181;-76
2021/04/09 05:52:45;;;;;;;2.57;2.17;;;;;;;4.13;61.42;100305.97;4989942;28;20188;-75
2021/04/09 05:55:11;;;;;;;0.90;0.90;;;;;;;4.17;61.10;100300.81;4991305;28;20601;-76
2021/04/09 05:57:36;;;;;;;12.77;1.63;;;;;;;4.21;60.85;100311.94;4991073;28;20266;-75
2021/04/09 06:00:04;;;;;;;2.27;2.17;;;;;;;4.24;60.93;100314.88;4991387;28;20177;-72
2021/04/09 06:02:30;;;;;;;0.80;0.80;;;;;;;4.28;60.91;100304.31;4991149;28;20177;-78
2021/04/09 06:04:55;;;;;;;2.17;2.07;;;;;;;4.34;60.79;100303.22;4991414;28;20240;-76
2021/04/09 06:07:20;;;;;;;0.63;0.63;;;;;;;4.39;61.05;100303.22;4991306;28;20181;-75
2021/04/09 06:09:46;;;;;;;2.63;1.90;;;;;;;4.43;61.21;100307.00;4991405;28;20487;-76
2021/04/09 06:12:12;;;;;;;0.20;0.20;;;;;;;4.47;61.06;100299.94;4991119;28;20169;-76
2021/04/09 06:14:37;;;;;;;0.57;0.57;;;;;;;4.48;60.31;100304.28;4991294;28;20276;-75
2021/04/09 06:17:04;;;;;;;0.20;0.20;;;;;;;4.51;60.82;100298.34;4991429;28;20300;-76
2021/04/09 06:19:30;;;;;;;0.00;0.00;;;;;;;4.57;60.19;100291.00;4991220;28;20178;-76
2021/04/09 06:21:55;;;;;;;1.33;1.13;;;;;;;4.61;61.38;100292.88;4993196;28;20223;-76
2021/04/09 06:24:20;;;;;;;4.37;2.10;;;;;;;4.64;60.92;100286.13;4995205;28;20172;-75
2021/04/09 06:26:46;;;;;;;0.87;0.87;;;;;;;4.70;60.77;100293.94;4994964;28;20177;-76
2021/04/09 06:29:11;;;;;;;2.93;1.60;;;;;;;4.75;61.10;100295.81;4995116;28;20695;-75
2021/04/09 06:31:36;;;;;;;0.20;0.20;;;;;;;4.82;60.42;100298.25;4994988;28;20183;-74
2021/04/09 06:34:02;;;;;;;0.83;0.83;;;;;;;4.88;59.57;100291.72;4994887;28;20181;-73
2021/04/09 06:36:27;;;;;;;1.97;1.57;;;;;;;4.92;60.43;100292.75;4994895;28;20288;-75
2021/04/09 06:38:53;;;;;;;2.23;1.23;;;;;;;4.96;60.06;100300.06;4994888;28;20255;-74
2021/04/09 06:41:18;;;;;;;1.57;1.23;;;;;;;4.99;60.22;100304.94;4994334;28;20189;-75
2021/04/09 06:43:45;;;;;;;1.40;1.30;;;;;;;5.04;59.78;100298.66;4994570;28;20173;-73
2021/04/09 06:46:10;;;;;;;1.17;1.07;;;;;;;5.09;59.56;100298.66;4994670;28;20181;-74
2021/04/09 06:48:36;;;;;;;0.30;0.30;;;;;;;5.15;59.34;100305.66;4994543;28;20173;-74
2021/04/09 06:51:02;;;;;;;3.87;1.83;;;;;;;5.22;59.44;100295.34;4994730;28;20176;-74
2021/04/09 06:53:30;;;;;;;1.57;1.47;;;;;;;5.28;59.18;100294.22;4994397;28;20180;-73
2021/04/09 06:55:56;;;;;;;0.80;0.80;;;;;;;5.40;58.76;100296.59;4994516;28;20177;-73
2021/04/09 06:58:23;;;;;;;0.37;0.37;;;;;;;5.43;58.53;100298.72;4994498;28;20201;-74
2021/04/09 07:00:56;;;;;;;1.07;0.97;;;;;;;5.40;58.45;100295.78;4994558;28;20775;-74
2021/04/09 07:03:22;;;;;;;2.20;1.43;;;;;;;5.42;58.83;100294.41;4994450;28;20173;-74
2021/04/09 07:05:49;;;;;;;0.77;0.77;;;;;;;5.53;58.62;100297.88;4994247;28;20178;-73
2021/04/09 07:08:14;;;;;;;0.80;0.80;;;;;;;5.63;58.15;100295.88;4994432;28;20235;-74
2021/04/09 07:10:40;;;;;;;3.30;0.50;;;;;;;5.71;58.51;100291.75;4994309;28;20177;-74
2021/04/09 07:13:08;;;;;;;0.63;0.63;;;;;;;5.83;58.62;100292.22;4994297;28;20284;-74
2021/04/09 07:15:39;;;;;;;2.00;1.80;;;;;;;5.88;57.93;100292.16;4994306;28;20173;-74
2021/04/09 07:18:06;;;;;;;1.37;1.27;;;;;;;5.96;58.66;100283.47;4994150;28;20211;-74
2021/04/09 07:20:32;;;;;;;0.40;0.40;;;;;;;6.04;58.34;100282.03;4994143;28;20548;-74
2021/04/09 07:23:00;;;;;;;0.83;0.83;;;;;;;6.11;57.11;100279.00;4993232;28;20197;-74
2021/04/09 07:25:34;;;;;;;2.53;2.33;;;;;;;6.12;57.52;100283.31;4993693;28;20204;-73
2021/04/09 07:28:08;;;;;;;0.57;0.57;;;;;;;6.23;57.71;100274.81;4986216;28;20204;-74
2021/04/09 07:30:34;;;;;;;1.13;0.60;;;;;;;6.29;56.67;100275.56;5004922;28;20181;-73
2021/04/09 07:33:03;;;;;;;0.50;0.50;;;;;;;6.29;57.10;100275.56;4992934;28;20583;-74
2021/04/09 07:35:29;;;;;;;1.20;1.10;;;;;;;6.37;58.30;100264.09;4994071;28;20180;-73
2021/04/09 07:37:57;;;;;;;1.00;1.00;;;;;;;6.38;57.20;100273.84;4993819;28;20205;-72
2021/04/09 07:40:31;;;;;;;0.57;0.57;;;;;;;6.43;57.33;100268.34;4993662;28;20237;-74
2021/04/09 07:42:58;;;;;;;1.57;1.53;;;;;;;6.52;57.49;100269.34;4994192;28;20177;-76
2021/04/09 07:45:26;;;;;;;0.80;0.77;;;;;;;6.68;57.68;100275.41;4993721;28;20598;-75
2021/04/09 07:48:00;;;;;;;7.07;1.60;;;;;;;6.80;57.33;100264.94;4993811;28;20169;-75
2021/04/09 07:50:34;;;;;;;2.20;2.10;;;;;;;6.90;57.85;100265.91;4992334;28;20181;-74
2021/04/09 07:53:00;;;;;;;1.17;1.17;;;;;;;7.00;56.80;100257.63;4993572;28;20207;-73
2021/04/09 07:55:29;;;;;;;0.87;0.43;;;;;;;7.01;57.19;100268.19;4992082;28;20170;-72
2021/04/09 07:57:54;;;;;;;3.20;0.83;;;;;;;6.97;56.24;100261.75;4993434;28;20224;-74
2021/04/09 08:00:22;;;;;;;0.30;0.30;;;;;;;7.02;56.16;100263.56;4993548;28;20591;-76
2021/04/09 08:02:55;;;;;;;0.97;0.83;;;;;;;7.07;56.90;100258.06;4993375;28;20177;-76
2021/04/09 08:05:25;;;;;;;1.60;1.50;;;;;;;7.21;56.75;100261.66;4993399;28;20177;-75
2021/04/09 08:07:51;;;;;;;0.53;0.53;;;;;;;7.18;55.44;100264.97;4993130;28;20180;-75
2021/04/09 08:10:19;;;;;;;5.07;1.80;;;;;;;7.22;55.29;100268.72;4992227;28;20205;-75
2021/04/09 08:12:51;;;;;;;5.97;2.60;;;;;;;7.29;56.27;100269.16;4991521;28;20170;-75
2021/04/09 08:15:23;;;;;;;1.90;1.23;;;;;;;7.44;56.72;100266.22;4991924;28;20172;-75
2021/04/09 08:18:01;;;;;;;0.50;0.50;;;;;;;7.48;56.59;100266.44;4991583;28;20219;-74
2021/04/09 08:20:41;;;;;;;1.00;1.00;;;;;;;7.55;55.09;100255.22;4991572;28;20184;-79
2021/04/09 08:23:13;;;;;;;1.57;1.47;;;;;;;7.72;55.77;100261.72;4991475;28;20208;-79
2021/04/09 08:25:40;;;;;;;1.03;1.03;;;;;;;7.89;54.79;100260.34;4992824;28;20185;-76
2021/04/09 08:28:09;;;;;;;1.70;1.60;;;;;;;7.86;54.93;100256.31;4992394;28;20172;-77
2021/04/09 08:30:37;;;;;;;3.17;1.47;;;;;;;7.97;55.48;100256.97;4991988;28;20235;-75
2021/04/09 08:33:05;;;;;;;2.23;2.07;;;;;;;8.10;56.02;100258.91;4992543;28;20219;-75
2021/04/09 08:35:31;;;;;;;4.57;2.97;;;;;;;8.29;54.69;100253.41;4992196;28;20177;-75
2021/04/09 08:38:02;;;;;;;1.90;0.77;;;;;;;8.23;55.62;100247.22;4991833;28;20201;-76
2021/04/09 08:40:29;;;;;;;0.67;0.67;;;;;;;8.25;54.27;100245.03;4991078;28;20200;-75
2021/04/09 08:42:55;;;;;;;0.87;0.87;;;;;;;8.26;54.36;100246.63;4991924;28;20598;-75
2021/04/09 08:45:20;;;;;;;0.37;0.37;;;;;;;8.27;53.97;100240.09;4992229;28;20193;-75
2021/04/09 08:47:52;;;;;;;2.07;1.77;;;;;;;8.27;53.28;100245.53;4991608;28;20193;-76
2021/04/09 08:50:18;;;;;;;1.80;1.70;;;;;;;8.31;53.44;100249.25;4991471;28;20272;-76
2021/04/09 08:52:45;;;;;;;0.70;0.70;;;;;;;8.45;54.20;100243.06;4991950;28;20181;-74
2021/04/09 08:55:13;;;;;;;1.43;1.33;;;;;;;8.51;53.52;100241.81;4992133;28;20177;-72
2021/04/09 08:57:42;;;;;;;0.77;0.77;;;;;;;8.67;53.95;100234.97;4991948;28;20212;-75
2021/04/09 09:00:18;;;;;;;0.70;0.70;;;;;;;8.72;53.38;100240.31;4991299;28;20843;-76
2021/04/09 09:02:54;;;;;;;1.03;1.03;;;;;;;8.83;55.40;100240.94;4991273;28;20192;-73
2021/04/09 09:05:26;;;;;;;0.70;0.70;;;;;;;8.84;53.43;100237.91;4992127;28;20185;-72
2021/04/09 09:07:53;;;;;;;1.33;1.23;;;;;;;8.93;54.03;100238.78;4991980;28;20184;-73
2021/04/09 09:10:30;;;;;;;1.60;1.40;;;;;;;8.93;53.10;100236.03;4991111;28;20220;-74
2021/04/09 09:13:14;;;;;;;0.47;0.37;;;;;;;8.93;53.57;100240.69;4991257;28;20235;-73
2021/04/09 09:15:42;;;;;;;1.70;1.60;;;;;;;8.85;52.38;100236.78;4991159;28;20563;-73
2021/04/09 09:18:23;;;;;;;1.30;1.30;;;;;;;8.97;53.35;100254.50;4991041;28;20201;-73
2021/04/09 09:21:01;;;;;;;1.67;1.57;;;;;;;9.06;53.34;100233.59;4990979;28;20184;-72
2021/04/09 09:23:52;;;;;;;2.30;1.33;;;;;;;9.11;53.37;100234.31;4989868;28;20457;-74
2021/04/09 09:26:31;;;;;;;0.77;0.77;;;;;;;9.21;52.52;100236.00;4991657;28;20260;-73
2021/04/09 09:29:26;;;;;;;1.77;1.70;;;;;;;9.16;53.15;100222.50;4991369;28;20173;-74
2021/04/09 09:31:52;;;;;;;1.70;1.60;;;;;;;9.12;53.86;100225.03;4991476;28;20625;-73
2021/04/09 09:34:17;;;;;;;5.40;1.40;;;;;;;9.22;53.26;100222.06;4991221;28;20165;-73
2021/04/09 09:37:06;;;;;;;2.43;2.23;;;;;;;9.36;53.37;100223.94;4991696;28;20564;-74
2021/04/09 09:39:50;;;;;;;2.07;1.97;;;;;;;9.25;52.64;100221.44;4990915;28;20185;-72
2021/04/09 09:42:21;;;;;;;4.77;1.67;;;;;;;9.30;53.46;100203.38;4990951;28;20252;-73
2021/04/09 09:44:48;;;;;;;0.50;0.50;;;;;;;9.29;53.57;100216.19;4991167;28;20171;-74
2021/04/09 09:47:14;;;;;;;2.50;2.40;;;;;;;9.41;53.71;100207.47;4991130;28;20169;-73
2021/04/09 09:49:40;;;;;;;2.00;1.43;;;;;;;9.51;54.24;100208.00;4990889;28;20185;-72
2021/04/09 09:52:24;;;;;;;9.10;1.50;;;;;;;9.58;53.31;100206.78;4990868;28;20544;-74
2021/04/09 09:55:13;;;;;;;0.93;0.93;;;;;;;9.75;53.48;100195.97;4991425;28;20197;-73
2021/04/09 09:57:44;;;;;;;5.13;3.30;;;;;;;9.85;53.01;100220.28;4990014;28;20723;-72
2021/04/09 10:00:10;;;;;;;1.97;1.30;;;;;;;9.60;52.96;100212.72;4991173;28;20212;-73
2021/04/09 10:02:35;;;;;;;1.03;1.03;;;;;;;9.59;53.64;100216.56;4990777;28;20169;-73
2021/04/09 10:05:01;;;;;;;5.70;2.00;;;;;;;9.67;53.32;100215.81;4990988;28;20183;-73
2021/04/09 10:07:27;;;;;;;6.03;1.63;;;;;;;9.85;52.88;100209.38;4990886;28;20181;-72
2021/04/09 10:09:53;;;;;;;2.20;2.07;;;;;;;10.00;53.23;100208.16;4990951;28;20260;-73
2021/04/09 10:12:22;;;;;;;1.80;1.60;;;;;;;10.01;52.91;100207.84;4990618;28;20208;-75
2021/04/09 10:14:49;;;;;;;1.77;1.67;;;;;;;10.03;53.31;100210.25;4990934;28;20231;-72
2021/04/09 10:17:14;;;;;;;0.50;0.50;;;;;;;9.91;51.88;100210.84;4991028;28;20225;-73
2021/04/09 10:19:59;;;;;;;0.70;0.70;;;;;;;9.92;52.45;100204.25;4991091;28;20656;-72
2021/04/09 10:22:24;;;;;;;1.53;0.70;;;;;;;10.14;51.77;100193.31;4990751;28;20204;-72
2021/04/09 10:24:50;;;;;;;2.43;0.80;;;;;;;10.33;51.49;100201.28;4990733;28;20197;-73
2021/04/09 10:27:15;;;;;;;0.70;0.70;;;;;;;10.72;49.73;100200.44;4990702;28;20216;-73
2021/04/09 10:29:40;;;;;;;0.67;0.67;;;;;;;10.43;49.00;100192.00;4990917;28;20180;-73
2021/04/09 10:32:17;;;;;;;0.90;0.90;;;;;;;10.38;49.89;100195.66;4990683;28;20181;-72
2021/04/09 10:34:46;;;;;;;0.43;0.43;;;;;;;10.46;50.99;100193.28;4990891;28;20177;-73
2021/04/09 10:37:19;;;;;;;0.30;0.30;;;;;;;10.40;50.03;100193.41;4990628;28;20205;-73
2021/04/09 10:39:45;;;;;;;0.63;0.63;;;;;;;10.38;50.31;100187.47;4990510;28;20243;-72
2021/04/09 10:42:10;;;;;;;6.03;0.73;;;;;;;10.43;50.25;100181.88;4990638;28;20177;-73
2021/04/09 10:44:36;;;;;;;0.20;0.20;;;;;;;10.48;50.94;100186.38;4990596;28;20181;-75
2021/04/09 10:47:04;;;;;;;0.20;0.20;;;;;;;10.50;51.25;100183.34;4990658;28;20188;-73
2021/04/09 10:49:38;;;;;;;0.60;0.60;;;;;;;10.65;50.88;100183.69;4990466;28;20177;-72
2021/04/09 10:52:09;;;;;;;1.07;0.70;;;;;;;10.57;50.98;100187.22;4990375;28;20671;-73
2021/04/09 10:54:38;;;;;;;0.77;0.77;;;;;;;10.70;50.18;100171.81;4990621;28;20169;-72
2021/04/09 10:57:12;;;;;;;0.97;0.40;;;;;;;10.87;49.94;100188.25;4990751;28;20292;-73
2021/04/09 10:59:46;;;;;;;0.43;0.43;;;;;;;10.80;49.55;100178.91;4990436;28;20215;-73
2021/04/09 11:02:23;;;;;;;1.10;1.00;;;;;;;10.79;50.12;100175.38;4990187;28;20231;-73
2021/04/09 11:04:51;;;;;;;1.87;0.90;;;;;;;10.90;50.54;100184.88;4990495;28;20177;-72
2021/04/09 11:07:16;;;;;;;0.93;0.93;;;;;;;10.86;49.87;100177.63;4990691;28;20203;-73
2021/04/09 11:09:52;;;;;;;1.20;1.10;;;;;;;10.58;50.97;100166.97;4993390;28;20200;-73
2021/04/09 11:12:19;;;;;;;0.47;0.47;;;;;;;10.57;51.62;100173.56;4993701;28;20185;-73
2021/04/09 11:14:45;;;;;;;0.40;0.20;;;;;;;10.65;51.49;100174.69;4993948;28;20181;-73
2021/04/09 11:17:22;;;;;;;0.83;0.83;;;;;;;10.63;48.55;100166.00;4994037;28;20279;-73
2021/04/09 11:19:52;;;;;;;1.03;0.30;;;;;;;10.70;49.89;100163.59;4993674;28;20169;-73
2021/04/09 11:22:17;;;;;;;0.30;0.30;;;;;;;10.71;49.55;100155.13;5008679;28;20185;-72
2021/04/09 11:24:43;;;;;;;1.50;1.33;;;;;;;10.88;50.09;100154.31;4993665;28;20181;-73
2021/04/09 11:27:18;;;;;;;0.50;0.50;;;;;;;10.98;48.69;100153.19;5008531;28;20221;-72
2021/04/09 11:29:44;;;;;;;0.43;0.43;;;;;;;11.19;48.69;100156.09;4993624;28;20177;-73
2021/04/09 11:32:14;;;;;;;0.43;0.43;;;;;;;11.14;48.00;100157.06;4993748;28;20177;-72
2021/04/09 11:34:42;;;;;;;3.23;0.13;;;;;;;11.07;48.31;100148.53;4993565;28;20597;-74
2021/04/09 11:37:09;;;;;;;0.63;0.63;;;;;;;11.17;48.23;100152.88;4993464;28;20201;-72